Time;durP1;ratioP1;P1;durP2;ratioP2;P2;SDS_P1;SDS_P2;PMS_P1;PMS_P2;Temp;Humidity;BMP_temperature;BMP_pressure;BME280_temperature;BME280_humidity;BME280_pressure;Samples;Min_cycle;Max_cycle;Signal;HPM_P1;HPM_P2
2022/01/24 03:48:37;;;;;;;28.58;13.95;;;3.60;98.80;;;;;;4796975;29;20161;-82
2022/01/24 03:50:42;;;;;;;28.20;13.63;;;3.60;98.80;;;;;;4787796;30;20051;-82
2022/01/24 03:53:08;;;;;;;25.80;14.75;;;3.60;98.90;;;;;;4757304;30;20035;-82
2022/01/24 03:55:34;;;;;;;26.13;13.80;;;3.70;98.90;;;;;;4798806;29;20035;-82
2022/01/24 03:58:01;;;;;;;28.67;15.60;;;3.70;98.70;;;;;;4777790;30;20152;-82
2022/01/24 04:00:27;;;;;;;27.27;14.63;;;3.70;98.70;;;;;;4798459;29;20107;-80
2022/01/24 04:02:52;;;;;;;27.75;14.05;;;3.70;98.70;;;;;;4780704;30;20052;-80
2022/01/24 04:05:18;;;;;;;25.52;14.57;;;3.70;98.40;;;;;;4780476;30;20373;-80
2022/01/24 04:07:44;;;;;;;27.17;14.00;;;3.50;98.50;;;;;;4768793;30;20043;-80
2022/01/24 04:10:12;;;;;;;30.73;16.80;;;3.50;99.10;;;;;;4765684;30;20102;-80
2022/01/24 04:12:40;;;;;;;30.27;16.60;;;3.40;99.20;;;;;;4792638;30;20391;-81
2022/01/24 04:18:09;;;;;;;32.30;17.60;;;3.40;99.70;;;;;;4798162;30;20027;-81
2022/01/24 04:23:20;;;;;;;29.48;15.93;;;3.40;99.90;;;;;;4798078;30;20380;-81
2022/01/24 04:25:46;;;;;;;34.53;16.27;;;3.30;99.90;;;;;;4765931;30;20036;-82
2022/01/24 04:28:11;;;;;;;35.22;17.45;;;3.30;99.90;;;;;;4789979;30;20460;-82
2022/01/24 04:30:38;;;;;;;34.80;16.15;;;3.40;99.90;;;;;;4765411;30;20040;-82
2022/01/24 04:33:04;;;;;;;30.05;15.90;;;3.40;99.90;;;;;;4765254;30;20056;-82
2022/01/24 04:35:30;;;;;;;35.28;16.88;;;3.50;99.90;;;;;;4786069;30;20031;-82
2022/01/24 04:37:56;;;;;;;27.33;15.90;;;3.40;99.90;;;;;;4786189;30;20381;-82
2022/01/24 04:40:22;;;;;;;33.37;17.27;;;3.40;99.90;;;;;;4789226;30;20073;-81
2022/01/24 04:42:56;;;;;;;31.42;17.08;;;3.40;99.90;;;;;;4776885;30;20035;-82
2022/01/24 04:45:33;;;;;;;34.13;15.70;;;3.40;99.90;;;;;;4770391;30;20081;-81
2022/01/24 04:56:05;;;;;;;31.35;16.08;;;3.30;99.90;;;;;;4784512;30;20084;-81
2022/01/24 04:58:31;;;;;;;30.63;17.65;;;3.30;99.90;;;;;;4767789;30;20050;-81
2022/01/24 05:00:57;;;;;;;33.05;17.33;;;3.30;99.90;;;;;;4783907;30;20062;-81
2022/01/24 05:03:22;;;;;;;33.47;16.35;;;3.40;99.90;;;;;;4753068;30;20042;-81
2022/01/24 05:05:50;;;;;;;41.33;19.48;;;3.40;99.90;;;;;;4782073;30;20054;-81
2022/01/24 05:08:16;;;;;;;33.17;18.45;;;3.40;99.90;;;;;;4782641;30;20059;-80
2022/01/24 05:11:02;;;;;;;31.58;16.98;;;3.40;99.90;;;;;;4752856;30;20039;-82
2022/01/24 05:24:28;;;;;;;38.08;20.83;;;3.50;99.90;;;;;;4733958;30;20056;-80
2022/01/24 05:26:54;;;;;;;42.15;21.10;;;3.50;99.90;;;;;;4731062;30;20083;-81
2022/01/24 05:29:20;;;;;;;42.28;21.60;;;3.50;99.90;;;;;;4731424;30;20052;-80
2022/01/24 05:31:46;;;;;;;43.97;23.27;;;3.60;99.90;;;;;;4728470;30;20338;-80
2022/01/24 05:34:11;;;;;;;50.08;23.33;;;3.50;99.90;;;;;;4754796;30;20099;-79
2022/01/24 05:36:37;;;;;;;42.45;21.80;;;3.50;99.90;;;;;;4745792;30;20336;-79
2022/01/24 05:39:03;;;;;;;46.05;22.95;;;3.60;99.90;;;;;;4716477;30;20076;-79
2022/01/24 05:41:29;;;;;;;46.30;21.00;;;3.60;99.90;;;;;;4730921;30;20063;-79
2022/01/24 05:43:55;;;;;;;46.40;21.80;;;3.50;99.90;;;;;;4716665;30;20613;-79
2022/01/24 05:46:21;;;;;;;43.78;22.30;;;3.50;99.90;;;;;;4713648;30;20114;-79
2022/01/24 05:48:47;;;;;;;48.17;23.90;;;3.50;99.90;;;;;;4740781;30;20044;-80
2022/01/24 05:51:13;;;;;;;40.50;20.88;;;3.50;99.90;;;;;;4728965;30;20362;-80
2022/01/24 05:53:39;;;;;;;51.33;24.20;;;3.50;99.90;;;;;;4716540;30;20105;-79
2022/01/24 05:56:04;;;;;;;50.80;25.25;;;3.50;99.90;;;;;;4731171;30;20377;-80
2022/01/24 05:58:30;;;;;;;39.50;22.13;;;3.40;99.90;;;;;;4731164;30;20032;-80
2022/01/24 06:00:56;;;;;;;47.03;25.60;;;3.40;99.90;;;;;;4743406;30;20096;-80
2022/01/24 06:03:22;;;;;;;55.70;25.52;;;3.40;99.90;;;;;;4766798;30;20039;-80
2022/01/24 06:05:47;;;;;;;47.15;25.35;;;3.40;99.90;;;;;;4752296;30;20043;-81
2022/01/24 06:08:13;;;;;;;51.67;25.63;;;3.30;99.90;;;;;;4767054;30;20356;-81
2022/01/24 06:10:40;;;;;;;46.00;23.52;;;3.30;99.90;;;;;;4782031;30;20039;-81
2022/01/24 06:13:06;;;;;;;47.40;23.60;;;3.30;99.90;;;;;;4781774;30;20049;-81
2022/01/24 06:15:33;;;;;;;47.87;23.50;;;3.30;99.90;;;;;;4797738;29;20322;-81
2022/01/24 06:17:59;;;;;;;51.45;24.13;;;3.20;99.90;;;;;;4764278;30;20316;-81
2022/01/24 06:20:24;;;;;;;50.92;24.52;;;3.20;99.90;;;;;;4796624;30;20035;-81
2022/01/24 06:22:51;;;;;;;46.80;24.10;;;3.20;99.90;;;;;;4796607;30;20027;-81
2022/01/24 06:25:22;;;;;;;51.97;26.00;;;3.20;99.90;;;;;;4781649;30;20035;-81
2022/01/24 06:27:48;;;;;;;51.58;25.17;;;3.30;99.90;;;;;;4781514;30;20472;-81
2022/01/24 06:30:14;;;;;;;47.43;24.77;;;3.30;99.90;;;;;;4796466;29;20039;-81
2022/01/24 06:32:40;;;;;;;46.00;24.70;;;3.30;99.90;;;;;;4796199;29;20312;-81
2022/01/24 06:35:07;;;;;;;50.83;25.88;;;3.30;99.90;;;;;;4752124;30;20031;-81
2022/01/24 06:37:34;;;;;;;55.70;29.13;;;3.30;99.90;;;;;;4766746;30;20035;-81
2022/01/24 06:40:00;;;;;;;50.67;27.08;;;3.30;99.90;;;;;;4781391;30;20112;-81
2022/01/24 06:42:25;;;;;;;54.95;27.35;;;3.40;99.90;;;;;;4796325;30;20031;-81
2022/01/24 06:44:53;;;;;;;53.22;26.48;;;3.40;99.90;;;;;;4766638;30;20046;-81
2022/01/24 06:47:19;;;;;;;46.28;23.52;;;3.30;99.90;;;;;;4762704;30;20067;-81
2022/01/24 06:49:46;;;;;;;50.65;26.15;;;3.30;99.90;;;;;;4780894;30;20208;-81
2022/01/24 06:52:13;;;;;;;47.87;25.57;;;3.40;99.90;;;;;;4783137;30;20098;-82
2022/01/24 06:54:41;;;;;;;53.92;27.10;;;3.40;99.90;;;;;;4781708;30;20073;-81
2022/01/24 06:57:09;;;;;;;52.90;27.95;;;3.40;99.90;;;;;;4784581;30;20253;-81
2022/01/24 06:59:36;;;;;;;46.05;25.52;;;3.50;99.90;;;;;;4769344;30;20103;-81
2022/01/24 07:02:03;;;;;;;50.15;26.63;;;3.50;99.90;;;;;;4765119;30;20091;-81
2022/01/24 07:04:28;;;;;;;46.20;23.42;;;3.60;99.90;;;;;;4767279;30;20039;-81
2022/01/24 07:06:54;;;;;;;48.95;26.38;;;3.60;99.90;;;;;;4767105;30;20040;-81
2022/01/24 07:09:20;;;;;;;49.47;25.90;;;3.60;99.90;;;;;;4770289;30;20220;-82
2022/01/24 07:11:46;;;;;;;46.63;24.50;;;3.70;99.90;;;;;;4799122;29;20055;-82
2022/01/24 07:14:15;;;;;;;48.90;26.42;;;3.70;99.90;;;;;;4783648;30;20083;-83
2022/01/24 07:19:28;;;;;;;54.13;27.35;;;3.80;99.90;;;;;;4799116;29;20031;-80
2022/01/24 07:21:54;;;;;;;52.75;28.20;;;3.80;99.90;;;;;;4784007;30;20031;-81
2022/01/24 07:24:20;;;;;;;58.15;31.70;;;3.90;99.90;;;;;;4781117;30;20052;-81
2022/01/24 07:26:46;;;;;;;55.05;29.98;;;3.90;99.90;;;;;;4752137;30;20123;-80
2022/01/24 07:29:12;;;;;;;54.95;31.27;;;4.00;99.90;;;;;;4770489;30;20303;-80
2022/01/24 07:31:37;;;;;;;56.47;31.40;;;4.00;99.90;;;;;;4769103;30;20095;-82
2022/01/24 07:34:03;;;;;;;56.13;33.38;;;4.10;99.90;;;;;;4754443;30;20309;-82
2022/01/24 07:36:30;;;;;;;67.50;29.02;;;4.00;99.90;;;;;;4769129;30;20043;-82
2022/01/24 07:38:55;;;;;;;48.92;27.58;;;4.00;99.90;;;;;;4769181;30;20313;-82
2022/01/24 07:41:27;;;;;;;50.92;27.48;;;4.00;99.90;;;;;;4768509;30;20051;-82
2022/01/24 07:43:53;;;;;;;46.53;26.25;;;4.00;99.90;;;;;;4784307;30;20242;-82
2022/01/24 07:46:19;;;;;;;49.00;24.60;;;4.00;99.90;;;;;;4798437;30;20143;-83
2022/01/24 07:48:45;;;;;;;44.22;25.65;;;4.00;99.90;;;;;;4768202;30;20048;-83
2022/01/24 07:51:11;;;;;;;47.15;25.23;;;4.10;99.90;;;;;;4782764;30;20130;-83
2022/01/24 07:53:37;;;;;;;47.22;25.98;;;4.10;99.90;;;;;;4798660;29;20042;-82
2022/01/24 07:56:04;;;;;;;46.80;25.33;;;4.10;99.90;;;;;;4781491;30;20382;-82
2022/01/24 07:58:33;;;;;;;49.03;27.17;;;4.10;99.90;;;;;;4768372;30;20039;-83
2022/01/24 08:00:59;;;;;;;49.35;25.75;;;4.20;99.90;;;;;;4764960;30;20044;-83
2022/01/24 08:03:26;;;;;;;56.50;26.98;;;4.10;99.90;;;;;;4742644;30;20386;-83
2022/01/24 08:05:52;;;;;;;50.58;26.80;;;4.00;99.90;;;;;;4723631;30;20056;-83
2022/01/24 08:08:18;;;;;;;52.70;26.77;;;4.00;99.90;;;;;;4757914;30;20132;-83
2022/01/24 08:10:44;;;;;;;53.03;26.50;;;3.90;99.90;;;;;;4742614;30;20085;-83
2022/01/24 08:13:10;;;;;;;49.60;27.27;;;3.90;99.90;;;;;;4747178;30;20039;-83
2022/01/24 08:15:36;;;;;;;50.95;27.52;;;3.90;99.90;;;;;;4747053;30;20040;-83
2022/01/24 08:18:04;;;;;;;53.28;27.05;;;4.00;99.90;;;;;;4760380;30;20090;-84
2022/01/24 08:20:30;;;;;;;43.05;24.85;;;4.00;99.90;;;;;;4745775;30;20043;-84
2022/01/24 08:22:56;;;;;;;49.78;25.15;;;4.10;99.90;;;;;;4749338;30;20035;-83
2022/01/24 08:25:22;;;;;;;43.17;22.70;;;4.10;99.90;;;;;;4747818;30;20097;-84
2022/01/24 08:27:48;;;;;;;44.20;24.67;;;4.10;99.90;;;;;;4748932;30;20032;-84
2022/01/24 08:30:17;;;;;;;50.90;26.52;;;4.20;99.90;;;;;;4744931;30;20032;-84
2022/01/24 08:32:43;;;;;;;51.70;27.05;;;4.20;99.50;;;;;;4784533;30;20115;-83
2022/01/24 08:35:10;;;;;;;49.15;28.23;;;4.00;99.50;;;;;;4779061;30;20040;-84
2022/01/24 08:37:36;;;;;;;56.83;28.33;;;4.10;99.50;;;;;;4782123;30;20031;-84
2022/01/24 08:40:05;;;;;;;51.03;26.13;;;4.00;99.70;;;;;;4767110;30;20051;-84
2022/01/24 08:42:42;;;;;;;49.67;25.85;;;4.10;99.80;;;;;;4796494;29;20042;-84
2022/01/24 08:47:53;;;;;;;51.67;26.10;;;4.00;99.50;;;;;;4784023;30;20108;-84
2022/01/24 08:50:25;;;;;;;50.95;26.33;;;4.00;99.20;;;;;;4796870;29;20039;-84
2022/01/24 08:52:52;;;;;;;49.17;26.70;;;4.10;99.40;;;;;;4766563;30;20031;-83
2022/01/24 08:55:17;;;;;;;50.72;27.02;;;4.10;99.70;;;;;;4781700;30;20288;-83
2022/01/24 08:57:43;;;;;;;53.50;25.50;;;4.20;99.50;;;;;;4752473;30;20084;-83
2022/01/24 09:00:10;;;;;;;43.60;25.42;;;4.10;99.20;;;;;;4769173;30;20330;-83
2022/01/24 09:02:35;;;;;;;60.55;27.38;;;4.10;99.50;;;;;;4764609;30;20035;-83
2022/01/24 09:05:02;;;;;;;52.75;26.63;;;4.20;99.80;;;;;;4766844;30;20039;-83
2022/01/24 09:07:30;;;;;;;46.15;26.15;;;4.10;99.30;;;;;;4796657;29;20026;-83
2022/01/24 09:09:57;;;;;;;44.83;25.40;;;4.10;99.50;;;;;;4772341;30;20032;-83
2022/01/24 09:12:23;;;;;;;43.95;23.50;;;4.10;99.80;;;;;;4777134;30;20054;-83
2022/01/24 09:15:18;;;;;;;48.57;24.87;;;4.00;99.10;;;;;;4795233;29;20031;-84
2022/01/24 09:17:44;;;;;;;49.03;24.42;;;3.90;99.60;;;;;;4780478;30;20057;-83
2022/01/24 09:20:11;;;;;;;45.03;22.02;;;3.90;99.70;;;;;;4795743;29;20039;-83
2022/01/24 09:22:40;;;;;;;49.22;24.60;;;4.00;99.80;;;;;;4794281;30;20023;-83
2022/01/24 09:25:10;;;;;;;49.28;24.58;;;4.10;99.60;;;;;;4778367;30;20081;-83
2022/01/24 09:27:37;;;;;;;48.83;25.77;;;4.10;99.20;;;;;;4767049;30;20084;-83
2022/01/24 09:30:03;;;;;;;;;;;4.10;99.40;;;;;;4764971;30;20208;-82
2022/01/24 09:32:28;;;;;;;53.15;25.65;;;4.10;99.50;;;;;;4781021;30;19931;-81
2022/01/24 09:34:54;;;;;;;44.17;22.17;;;4.10;99.10;;;;;;4781206;30;20039;-81
2022/01/24 09:37:20;;;;;;;51.67;25.75;;;4.10;99.30;;;;;;4766259;30;20035;-81
2022/01/24 09:39:49;;;;;;;54.85;28.33;;;4.00;99.10;;;;;;4762497;30;20110;-81
2022/01/24 09:42:16;;;;;;;56.20;26.48;;;3.90;99.40;;;;;;4780733;30;20096;-81
2022/01/24 09:44:42;;;;;;;52.08;24.98;;;3.90;99.60;;;;;;4797111;30;20038;-81
2022/01/24 09:47:09;;;;;;;53.17;23.63;;;4.00;99.90;;;;;;4778322;30;20068;-82
2022/01/24 09:49:35;;;;;;;54.22;24.73;;;4.00;99.60;;;;;;4795804;29;20130;-81
2022/01/24 09:52:00;;;;;;;51.88;25.88;;;4.00;99.40;;;;;;4765175;30;20051;-81
2022/01/24 09:54:26;;;;;;;50.50;25.50;;;4.20;99.70;;;;;;4766084;30;20027;-81
2022/01/24 09:56:52;;;;;;;50.70;24.80;;;4.10;98.50;;;;;;4751439;30;20035;-81
2022/01/24 09:59:18;;;;;;;56.17;26.80;;;4.20;99.50;;;;;;4795038;29;20061;-81
2022/01/24 10:01:44;;;;;;;49.67;24.42;;;4.40;99.70;;;;;;4751455;30;20334;-81
2022/01/24 10:04:19;;;;;;;50.55;25.48;;;4.60;99.50;;;;;;4796292;29;20031;-81
2022/01/24 10:07:08;;;;;;;48.75;25.38;;;4.70;98.70;;;;;;4796293;29;20295;-81
2022/01/24 10:09:38;;;;;;;49.63;26.77;;;4.70;98.60;;;;;;4793315;30;20123;-82
2022/01/24 10:18:09;;;;;;;48.50;26.25;;;4.90;97.90;;;;;;4770490;30;20320;-81
2022/01/24 10:20:37;;;;;;;53.95;27.92;;;5.00;97.40;;;;;;4747913;30;20070;-81
2022/01/24 10:23:24;;;;;;;60.10;27.70;;;4.90;97.90;;;;;;4747718;30;20040;-81
2022/01/24 10:26:00;;;;;;;58.50;30.58;;;5.00;97.60;;;;;;4760729;30;20077;-81
2022/01/24 10:28:32;;;;;;;55.03;27.03;;;5.10;97.50;;;;;;4761881;30;20036;-82
2022/01/24 10:31:10;;;;;;;60.80;26.92;;;5.30;97.50;;;;;;4765836;30;20058;-81
2022/01/24 10:33:56;;;;;;;53.58;28.10;;;5.30;96.30;;;;;;4762820;30;20106;-82
2022/01/24 10:36:39;;;;;;;53.33;28.02;;;5.20;96.60;;;;;;4745296;30;21093;-81
2022/01/24 10:39:33;;;;;;;51.67;27.85;;;5.20;96.90;;;;;;4749793;30;20051;-81
2022/01/24 10:45:16;;;;;;;53.67;28.60;;;5.10;95.30;;;;;;4738144;30;20061;-82
2022/01/24 10:47:46;;;;;;;55.50;30.73;;;4.90;96.30;;;;;;4721238;30;20061;-82
2022/01/24 10:50:30;;;;;;;66.30;28.55;;;4.80;97.10;;;;;;4738965;30;20144;-83
2022/01/24 10:52:58;;;;;;;56.10;29.80;;;4.90;97.50;;;;;;4727353;30;20061;-82
2022/01/24 10:55:27;;;;;;;54.50;28.73;;;5.00;97.70;;;;;;4712066;30;20056;-82
2022/01/24 10:58:07;;;;;;;49.13;28.40;;;4.90;96.70;;;;;;4720151;30;20045;-82
2022/01/24 11:00:35;;;;;;;58.50;28.77;;;4.80;97.10;;;;;;4729362;30;20053;-82
2022/01/24 11:03:03;;;;;;;51.83;27.27;;;4.90;97.80;;;;;;4723778;30;20053;-82
2022/01/24 11:05:33;;;;;;;52.40;27.50;;;5.00;97.20;;;;;;4732263;30;20029;-82
2022/01/24 11:08:04;;;;;;;54.55;28.90;;;5.10;96.70;;;;;;4704787;30;20036;-82
2022/01/24 11:10:33;;;;;;;54.88;27.17;;;5.10;96.90;;;;;;4734318;30;20060;-81
2022/01/24 11:13:03;;;;;;;50.60;27.80;;;5.10;96.80;;;;;;4736080;30;20245;-80
2022/01/24 11:15:29;;;;;;;56.53;29.52;;;5.10;97.30;;;;;;4721427;30;20278;-81
2022/01/24 11:17:55;;;;;;;56.92;29.88;;;5.10;97.10;;;;;;4721633;30;20029;-81
2022/01/24 11:20:29;;;;;;;55.92;31.25;;;5.10;97.20;;;;;;4716024;30;20047;-80
2022/01/24 11:22:59;;;;;;;67.70;34.10;;;5.10;96.90;;;;;;4745684;30;20335;-81
2022/01/24 11:25:31;;;;;;;66.03;36.10;;;5.00;96.50;;;;;;4783545;30;20281;-81
2022/01/24 11:27:57;;;;;;;70.97;33.33;;;5.00;96.50;;;;;;4797946;29;20377;-82
2022/01/24 11:30:29;;;;;;;76.40;39.33;;;4.90;96.30;;;;;;4759765;30;20043;-81
2022/01/24 11:33:07;;;;;;;75.30;35.90;;;4.90;96.70;;;;;;4789176;30;20084;-81
2022/01/24 11:35:43;;;;;;;64.65;34.65;;;5.00;96.60;;;;;;4778723;30;20084;-81
2022/01/24 11:38:25;;;;;;;64.53;38.08;;;5.00;96.50;;;;;;4782173;30;20044;-81
2022/01/24 11:40:57;;;;;;;82.00;38.53;;;5.10;96.30;;;;;;4797594;29;20028;-81
2022/01/24 11:43:30;;;;;;;68.95;34.17;;;5.10;95.70;;;;;;4797848;29;20027;-82
2022/01/24 11:46:03;;;;;;;78.55;38.80;;;5.10;95.70;;;;;;4781017;30;20055;-82
2022/01/24 11:48:32;;;;;;;63.72;33.95;;;5.10;95.30;;;;;;4781153;30;20027;-82
2022/01/24 11:51:11;;;;;;;60.90;34.72;;;5.20;95.40;;;;;;4782040;30;20234;-81
2022/01/24 11:53:45;;;;;;;60.75;32.08;;;5.20;95.40;;;;;;4797032;30;20083;-82
2022/01/24 11:56:40;;;;;;;56.65;29.52;;;5.30;95.40;;;;;;4782780;30;20046;-82
2022/01/24 11:59:22;;;;;;;57.25;29.30;;;5.30;94.20;;;;;;4760977;30;20059;-81
2022/01/24 12:02:05;;;;;;;59.72;32.70;;;5.20;94.20;;;;;;4761194;30;20046;-82
2022/01/24 12:04:49;;;;;;;58.53;29.58;;;5.10;94.10;;;;;;4736347;30;20056;-83
2022/01/24 12:07:20;;;;;;;60.33;30.38;;;5.00;94.20;;;;;;4757809;30;20051;-82
2022/01/24 12:10:06;;;;;;;57.75;29.70;;;4.90;94.10;;;;;;4747830;30;20044;-83
2022/01/24 12:12:43;;;;;;;53.92;28.83;;;4.90;94.40;;;;;;4705997;30;20054;-82
2022/01/24 12:15:10;;;;;;;;;;;4.90;94.40;;;;;;4699644;30;20139;-82
2022/01/24 12:17:52;;;;;;;61.28;30.20;;;4.90;94.20;;;;;;4696221;30;19922;-82
2022/01/24 12:20:48;;;;;;;54.55;28.42;;;4.90;95.30;;;;;;4679010;30;20029;-82
2022/01/24 12:23:18;;;;;;;57.53;28.05;;;5.00;94.40;;;;;;4638981;31;20342;-82
2022/01/24 12:25:57;;;;;;;53.70;28.27;;;4.90;94.10;;;;;;4637354;31;20046;-82
2022/01/24 12:28:41;;;;;;;54.40;28.50;;;4.90;94.50;;;;;;4616170;31;20054;-82
2022/01/24 12:31:08;;;;;;;68.03;28.70;;;4.90;94.20;;;;;;4632544;31;20126;-82
2022/01/24 12:33:41;;;;;;;50.83;28.42;;;4.90;94.20;;;;;;4623756;31;20036;-82
2022/01/24 12:36:10;;;;;;;59.20;28.88;;;4.90;94.30;;;;;;4648700;30;20089;-83
2022/01/24 12:38:52;;;;;;;59.08;30.05;;;4.90;93.70;;;;;;4673208;30;20394;-82
2022/01/24 12:41:29;;;;;;;51.60;27.40;;;4.80;93.50;;;;;;4670799;30;20042;-82
2022/01/24 12:46:27;;;;;;;63.37;26.23;;;4.90;92.70;;;;;;4675235;30;20505;-82
2022/01/24 12:48:58;;;;;;;53.38;26.25;;;4.80;92.40;;;;;;4681891;30;20048;-82
2022/01/24 12:51:27;;;;;;;50.15;24.83;;;4.90;93.00;;;;;;4721154;30;20048;-82
2022/01/24 12:53:54;;;;;;;56.63;28.25;;;4.90;92.80;;;;;;4710707;30;20048;-82
2022/01/24 12:56:26;;;;;;;;;;;4.90;92.50;;;;;;4739826;30;20033;-82
2022/01/24 12:58:52;;;;;;;52.47;26.67;;;5.00;92.30;;;;;;4739596;30;20069;-82
2022/01/24 13:01:24;;;;;;;59.92;28.40;;;4.90;92.00;;;;;;4790206;29;20346;-81
2022/01/24 13:04:02;;;;;;;48.13;27.13;;;4.90;92.20;;;;;;4792125;30;20035;-81
2022/01/24 13:06:31;;;;;;;63.75;27.15;;;4.90;92.40;;;;;;4779084;30;20068;-82
2022/01/24 13:09:00;;;;;;;76.68;39.33;;;5.10;92.70;;;;;;4796380;29;20042;-81
2022/01/24 13:11:29;;;;;;;64.75;31.38;;;5.10;92.30;;;;;;4790716;29;20046;-82
2022/01/24 13:14:07;;;;;;;64.30;29.60;;;5.10;92.20;;;;;;4773686;30;20054;-83
2022/01/24 13:25:07;;;;;;;54.00;27.27;;;5.00;91.90;;;;;;4773499;30;20128;-82
2022/01/24 13:27:43;;;;;;;56.45;27.55;;;5.00;92.20;;;;;;4776510;30;20244;-82
2022/01/24 13:30:19;;;;;;;59.55;29.50;;;5.10;92.40;;;;;;4771939;30;20039;-83
2022/01/24 13:32:52;;;;;;;55.22;28.42;;;5.00;91.90;;;;;;4781112;30;20050;-83
2022/01/24 13:35:25;;;;;;;53.30;28.23;;;5.00;92.30;;;;;;4796099;30;20081;-82
2022/01/24 13:37:54;;;;;;;56.58;29.98;;;4.90;92.20;;;;;;4775446;30;20053;-83
2022/01/24 13:40:37;;;;;;;53.47;31.67;;;4.80;92.60;;;;;;4765468;30;20038;-83
2022/01/24 13:43:04;;;;;;;56.55;32.67;;;4.80;93.60;;;;;;4792384;29;20027;-82
2022/01/24 13:45:42;;;;;;;59.00;31.42;;;4.80;94.00;;;;;;4776287;30;20036;-82
2022/01/24 13:48:20;;;;;;;62.08;32.80;;;4.90;94.10;;;;;;4795846;30;20031;-81
2022/01/24 13:50:57;;;;;;;61.58;31.58;;;4.90;94.30;;;;;;4774886;30;20105;-83
2022/01/24 13:53:54;;;;;;;62.25;33.78;;;4.90;94.10;;;;;;4781557;30;20068;-82
2022/01/24 13:56:27;;;;;;;63.25;33.72;;;4.80;94.40;;;;;;4737489;30;20055;-83
2022/01/24 13:59:10;;;;;;;66.68;33.22;;;4.80;94.60;;;;;;4749891;30;20255;-83
2022/01/24 14:02:03;;;;;;;67.82;34.58;;;4.80;95.00;;;;;;4733915;30;20040;-83
2022/01/24 14:04:31;;;;;;;57.80;32.20;;;4.80;94.80;;;;;;4702047;30;20065;-83
2022/01/24 14:06:58;;;;;;;;;;;4.80;94.90;;;;;;4689675;30;20120;-83
2022/01/24 14:09:36;;;;;;;64.00;32.20;;;4.70;94.70;;;;;;4688770;30;20199;-83
2022/01/24 14:12:03;;;;;;;54.75;30.50;;;4.70;95.00;;;;;;4675754;30;20049;-83
2022/01/24 14:19:56;;;;;;;59.33;30.27;;;4.80;95.10;;;;;;4671334;30;20073;-83
2022/01/24 14:22:23;;;;;;;58.72;31.42;;;4.80;94.90;;;;;;4643497;30;20046;-83
2022/01/24 14:24:56;;;;;;;61.35;33.08;;;4.80;95.00;;;;;;4658120;30;20036;-82
2022/01/24 14:27:41;;;;;;;56.42;29.02;;;4.80;95.00;;;;;;4670731;30;20045;-83
2022/01/24 14:30:20;;;;;;;56.40;28.02;;;4.80;94.70;;;;;;4670263;30;20335;-83
2022/01/24 14:33:20;;;;;;;59.58;29.63;;;4.70;94.30;;;;;;4674597;30;20049;-83
2022/01/24 14:35:59;;;;;;;53.97;30.52;;;4.60;94.60;;;;;;4687573;30;20068;-83
2022/01/24 14:38:38;;;;;;;55.58;29.45;;;4.60;94.80;;;;;;4692041;30;20025;-83
2022/01/24 14:41:29;;;;;;;53.55;29.20;;;4.60;94.90;;;;;;4700245;30;20044;-83
2022/01/24 14:46:46;;;;;;;57.85;30.73;;;4.60;94.90;;;;;;4734836;30;20052;-83
2022/01/24 14:49:17;;;;;;;58.83;31.20;;;4.60;94.60;;;;;;4723226;30;20041;-83
2022/01/24 14:51:45;;;;;;;59.00;30.05;;;4.60;94.70;;;;;;4725274;30;20041;-83
2022/01/24 14:54:22;;;;;;;59.45;31.77;;;4.50;94.80;;;;;;4759556;30;20054;-83
2022/01/24 14:56:54;;;;;;;59.35;30.90;;;4.50;95.10;;;;;;4775483;30;20067;-83
2022/01/24 14:59:22;;;;;;;61.30;31.38;;;4.40;95.10;;;;;;4788841;29;20340;-83
2022/01/24 15:01:49;;;;;;;63.67;31.77;;;4.30;95.10;;;;;;4790195;30;20070;-83
2022/01/24 15:04:15;;;;;;;62.47;32.55;;;4.40;95.60;;;;;;4775608;30;20043;-83
2022/01/24 15:06:42;;;;;;;56.03;31.27;;;4.40;95.50;;;;;;4779609;30;20118;-81
2022/01/24 15:09:21;;;;;;;61.60;31.33;;;4.30;95.30;;;;;;4799977;29;20031;-83
2022/01/24 15:11:48;;;;;;;62.75;32.30;;;4.20;95.50;;;;;;4775732;30;20039;-82
2022/01/24 15:14:18;;;;;;;;;;;4.20;95.60;;;;;;4783068;30;20054;-83
2022/01/24 15:16:54;;;;;;;68.43;32.90;;;4.20;95.80;;;;;;4782314;30;19921;-83
2022/01/24 15:25:20;;;;;;;66.25;32.05;;;4.20;95.60;;;;;;4779373;30;20063;-83
2022/01/24 15:27:37;;;;;;;62.33;32.97;;;4.20;95.60;;;;;;4794815;29;20043;-82
2022/01/24 15:30:06;;;;;;;59.00;31.40;;;4.10;95.60;;;;;;4778126;30;20034;-83
2022/01/24 15:32:32;;;;;;;60.53;32.92;;;4.10;95.70;;;;;;4796103;30;20338;-83
2022/01/24 15:34:58;;;;;;;63.33;33.40;;;4.00;95.90;;;;;;4767060;30;20146;-83
2022/01/24 15:37:24;;;;;;;62.20;35.28;;;4.00;95.90;;;;;;4780846;30;20257;-82
2022/01/24 15:39:49;;;;;;;68.95;32.85;;;4.10;96.10;;;;;;4766347;30;20038;-82
2022/01/24 15:42:19;;;;;;;63.53;32.67;;;4.10;96.00;;;;;;4774065;30;20099;-82
2022/01/24 15:49:44;;;;;;;59.00;30.98;;;4.00;95.80;;;;;;4780589;30;20044;-82
2022/01/24 15:52:11;;;;;;;65.15;33.50;;;4.00;95.80;;;;;;4796582;30;20031;-82
2022/01/24 15:54:37;;;;;;;58.80;31.58;;;4.00;96.00;;;;;;4783928;30;20046;-81
2022/01/24 15:59:47;;;;;;;64.55;34.15;;;4.00;95.90;;;;;;4797414;29;20238;-82
2022/01/24 16:02:13;;;;;;;56.10;31.85;;;4.00;96.00;;;;;;4793553;29;20085;-83
2022/01/24 16:04:40;;;;;;;63.30;31.87;;;4.00;95.90;;;;;;4781350;30;20424;-81
2022/01/24 16:07:07;;;;;;;60.65;31.15;;;4.00;95.70;;;;;;4779869;30;20934;-83
2022/01/24 16:09:33;;;;;;;67.10;32.92;;;3.90;95.90;;;;;;4767538;30;20216;-83
2022/01/24 16:11:59;;;;;;;67.93;32.40;;;3.90;96.00;;;;;;4776165;30;20031;-83
2022/01/24 16:14:26;;;;;;;60.72;32.65;;;3.90;95.90;;;;;;4798756;29;20027;-83
2022/01/24 16:16:52;;;;;;;66.33;33.87;;;3.80;95.90;;;;;;4792292;29;20027;-83
2022/01/24 16:19:20;;;;;;;64.53;34.70;;;3.80;96.20;;;;;;4765310;30;20231;-83
2022/01/24 16:27:06;;;;;;;60.17;33.33;;;3.80;96.30;;;;;;4735689;30;20050;-81
2022/01/24 16:29:32;;;;;;;62.63;33.67;;;3.80;96.30;;;;;;4729905;30;20422;-81
2022/01/24 16:31:58;;;;;;;60.15;33.22;;;3.80;96.20;;;;;;4742012;30;20071;-82
2022/01/24 16:34:24;;;;;;;63.67;33.15;;;3.80;96.20;;;;;;4735807;30;20037;-81
2022/01/24 16:36:52;;;;;;;67.90;33.17;;;3.80;96.30;;;;;;4742544;30;20126;-81
2022/01/24 16:39:20;;;;;;;63.05;32.83;;;3.70;96.30;;;;;;4716454;30;20045;-82
2022/01/24 16:42:00;;;;;;;63.22;33.42;;;3.70;96.40;;;;;;4731164;30;20357;-81
2022/01/24 16:47:10;;;;;;;59.15;33.58;;;3.60;96.50;;;;;;4739967;30;20128;-83
2022/01/24 16:49:39;;;;;;;68.10;34.40;;;3.60;96.70;;;;;;4719589;30;20117;-82
2022/01/24 16:52:07;;;;;;;65.95;34.55;;;3.70;96.70;;;;;;4736849;30;20064;-84
2022/01/24 16:54:33;;;;;;;69.00;35.22;;;3.60;96.80;;;;;;4721958;30;20383;-83
2022/01/24 16:57:00;;;;;;;57.28;32.40;;;3.60;96.80;;;;;;4711219;30;20040;-81
2022/01/24 16:59:27;;;;;;;68.47;34.45;;;3.60;96.80;;;;;;4725903;30;20072;-82
2022/01/24 17:01:53;;;;;;;61.30;33.92;;;3.60;96.90;;;;;;4746334;30;20361;-82
2022/01/24 17:04:21;;;;;;;58.83;31.77;;;3.60;96.60;;;;;;4748360;30;20051;-82
2022/01/24 17:06:50;;;;;;;59.35;31.17;;;3.60;96.70;;;;;;4760530;30;20039;-83
2022/01/24 17:09:16;;;;;;;69.15;34.13;;;3.60;96.50;;;;;;4764353;30;20118;-82
2022/01/24 17:11:46;;;;;;;90.15;43.92;;;3.50;96.50;;;;;;4779328;30;20066;-83
2022/01/24 17:14:24;;;;;;;92.47;45.45;;;3.60;96.60;;;;;;4767149;30;20038;-82
2022/01/24 17:16:50;;;;;;;77.15;40.42;;;3.50;96.50;;;;;;4755625;30;20346;-82
2022/01/24 17:19:18;;;;;;;87.28;38.90;;;3.50;96.50;;;;;;4762740;30;20056;-83
2022/01/24 17:21:46;;;;;;;94.93;49.67;;;3.50;96.60;;;;;;4752931;30;20403;-83
2022/01/24 17:24:12;;;;;;;78.68;40.50;;;3.50;97.20;;;;;;4775307;30;20278;-83
2022/01/24 17:26:39;;;;;;;72.33;36.20;;;3.50;97.10;;;;;;4748013;30;20046;-83
2022/01/24 17:29:10;;;;;;;72.60;35.85;;;3.40;97.20;;;;;;4774896;30;20065;-82
2022/01/24 17:31:41;;;;;;;69.07;35.08;;;3.50;97.30;;;;;;4762043;30;20215;-82
2022/01/24 17:34:08;;;;;;;70.53;37.58;;;3.40;97.20;;;;;;4776355;30;20031;-82
2022/01/24 17:36:36;;;;;;;82.57;41.35;;;3.40;97.30;;;;;;4756880;30;20055;-82
2022/01/24 17:39:04;;;;;;;83.13;45.78;;;3.40;97.50;;;;;;4777947;30;20036;-82
2022/01/24 17:41:30;;;;;;;78.65;47.15;;;3.40;97.50;;;;;;4773771;30;20251;-82
2022/01/24 17:43:56;;;;;;;73.80;36.72;;;3.50;97.90;;;;;;4748621;30;20085;-83
2022/01/24 17:46:22;;;;;;;71.68;39.33;;;3.40;97.70;;;;;;4749616;30;20059;-82
2022/01/24 17:48:48;;;;;;;71.15;39.83;;;3.40;97.80;;;;;;4779341;30;20276;-82
2022/01/24 17:51:14;;;;;;;70.35;37.40;;;3.40;97.90;;;;;;4780198;30;20260;-82
2022/01/24 17:53:43;;;;;;;71.82;38.92;;;3.40;97.90;;;;;;4753804;30;20039;-82
2022/01/24 17:56:10;;;;;;;72.00;36.67;;;3.40;98.00;;;;;;4794342;30;20027;-82
2022/01/24 17:58:36;;;;;;;72.00;38.85;;;3.50;98.00;;;;;;4793374;30;20072;-82